Terminal Aerodrome Forecast
Issued by NWS Milwaukee/Sullivan, WI

Home | Current Version | Previous Version | Text Only | Print | Product List | Glossary On
Versions: 1 2 3 4 5 6 7 8 9 10 11 12 13 14 15 16 17 18 19 20 21 22 23 24 25 26 27 28 29 30
000
FTUS43 KMKX 191743
TAFMKE
TAF
KMKE 191743Z 1918/2024 33010KT P6SM FEW250
     FM200100 VRB04KT P6SM SKC
     FM201000 VRB03KT 6SM BR SKC
     FM201400 VRB04KT P6SM FEW250=

USA.gov is the U.S. government's official web portal to all federal, state and local government web resources and services.